Timeline UpdatesTrip UpdatesNews PostsPvt PostsTravel TipsAdmin PostsConv PostsFollowed PostsChat RequestsBlog PostsPNR Posts

Disclaimer
Search
 
 
Thu Aug 21, 2014 13:44:42 ISTHomeTrainsΣChainsAtlasPNRForumGalleryNewsFAQTripsMembersLoginFeedback
No Recent News for this Train
Other Trains in the News **new
Latest...
Cancelled on 17/8/14 #1189754
Sun Aug 17, 2014 (12:25AM)
⇐ Return Journey: Train# 15484

14083⇒15483/Sikkim Mahananda Express

Jan 14 2014 (8:05PM)
Change Departure Station:
Change Arrival Station:
Post a Train Travel TipPost a Train Travel Tip **new
Post a Comment/Question/Picture/VideoPost a Comment/Question/Picture/Video
Pantry/Catering
✓ Pantry Car Avbl
✓ Catering Avbl
RSA - Rake Sharing
Rake/Coach Composition
LOCO-SLR-GS-GS-GS-AB-B1-PC-S11-PC-S10-S9-S8-S7-S6-S5-S4-S3-S2-S1-GS-GS-GS-SLR
Loco
SGUJ WDP-4 (APDJ to PNBE), GZB/MGS WAP-4 (PNBE to DLI)
News    PNR    Forum    Time-Table    Availability    Fare Chart    Map    Arr/Dep History    Trips    Gallery    ΣChains    X/O    Timeline    
Travel Time: 8h 50m    16 halts    Distance: 435 km    Avg Speed: 49 km/hr
Type: Mail/Express
Zone: NFR/Northeast Frontier
Departs @ 09:20
Platform# 5
SMTWTFS
Kanpur Central/CNB 
Arrives @ 18:10
Platform# 11
SMTWTFS
Old Delhi Junction/DLI 

16 halts. 64 intermediate Stations between Kanpur Central and Old Delhi Junction

Show ALL intermediate Stations  Show Old Time-Table

#CodeStation NameX/OArrivesAvgDepartsAvgHaltPFDay#KmSpeedElevZoneAddress
1APDJAlipur Duar Junction (3)  -07:15-11-1216.46053mNFRDist - Alipurduar, West Bengal
2HSAHasimara (3)X  07:50-07:52-2m--1-1181.656123mNFRDist - Alipurduar, West Bengal
3DLODalgaon (3)  08:19-08:20-1m11-1156.349 NFRDist : Alipurduar, West Bengal
4BNVBinnaguri (3)  08:31-08:32-1m--1-1147.362132mNFRDist : jalpaiguri, West Bengal
5NMZNew Mal Junction (3)X  09:15-09:20-5m--1-1103.041161mNFRDist - Jalpaiguri, West Bengal
6SGUJSiliguri Junction (5)X  10:30-10:35-5m--1-1055.229120mNFRDist-Darjeeling Siliguri-734001, West Bengal
7NJPNew Jalpaiguri Junction (8)X  10:50-11:10-20m31-1047.976114mNFRCity-Siliguri . Dist-Jalpaiguri, West Bengal
8AUBAluabari Road (2)  11:55-11:57-2m21-991.2730mNFRDist - uttar Dinajpur, West Bengal
9KNEKishanGanj (3)X  12:22-12:27-5m21-960.66852mNFRKishanganj, Bihar
10DLKDalkhola (3)X  12:52-12:53-1m101-932.17644mNFRDalkola, West Bengal
11BOEBarsoi Junction (3)  13:16-13:18-2m--1-903.05737mNFRdist- katihar, Bihar
12AZRAzamnagar Road (3)  13:32-13:33-1m--1-889.73534mNFRAzamnagar, Bihar
13LAVLabha (2)  14:09-14:10-1m11-868.61829mNFRDist : Katihar, Bihar
14KIRKatihar Junction (7)XO  15:25-15:45-20m51-845.84335mNFRKatihar 854105, Bihar
15SMOSemapur16:01-16:03-2m--1-834.3-35mECRKatihar, Bihar
16CRRKaragola Road  16:06-16:07-1m--1-823.56836mECRLachhmipur, Bihar
17KUEKurselaX  16:22-16:23-1m--1-806.67431mECRNH 31, Bihar
18NNANaugachia  16:38-16:39-1m--1-788.06037mECRBhagalpur, Bihar
19THBThana Bihpur JunctionXO  16:55-16:56-1m--1-772.11639mECRThana Bihpur, Bihar
20NNRNarayanpur  17:24-17:25-1m--1-764.55039mECRNarayanpur, Bihar
21PSRPasrahaX  17:39-17:40-1m--1-752.95341mECRPasraha, Bihar
22MSKMahes Khunt  17:54-17:55-1m--1-740.55737mECRMaheshkhunt, Bihar
23MNEMansi Junction (3)X  18:06-18:07-1m--1-730.13143mECRMansi, Bihar
24KGGKhagaria Junction (3)X  18:24-18:25-1m--1-721.35343mECRKhagaria, Bihar
25SKJSahibpur Kamal Junction (2)  18:39-18:40-1m--1-708.94241mECRShahpur Kamal, Bihar
26LKNLakhminia  18:54-18:55-1m--1-699.22245mECRBegusarai, Bihar
27BGSBegu Sarai (3)X  19:44-19:45-1m--1-681.415 ECRBegusarai, Bihar
28BJUBarauni Junction (9)X  20:40-20:45-5m11-668.01949mECRBegusarai, Bihar
29MKAMokama Junction (4)X  21:51-21:53-2m31-647.38848mECRPatna, Bihar
30BKPBakhtiyarpur Junction (5)  22:23-22:25-2m--1-603.24951mECRPatna, Bihar
31PNBEPatna Junction (10)X  23:20-23:45-25m41-558.03557mECRPatna 800001, Bihar
32DNRDanapur (5)  00:01-00:03-2m--2-548.79158mECRKhagaul, Bihar
33ARAAra Junction (3)  00:29-00:31-2m--2-509.17163mECRarrah( 06182-233411), Bihar
34BXRBuxar (3)X  01:29-01:32-3m--2-440.64267mECRBuxar, Bihar
35MGSMughal Sarai Junction (8)X  03:45-04:00-15m42-346.76483mECRMughalsarai 232101, Uttar Pradesh
36MZPMirzapur (3)  04:59-05:00-1m--2-283.54088mNCRMirzapur, Uttar Pradesh
37BDLVindhyachal (3)X  05:11-05:12-1m--2-276.28888mNCRMirzapur, Uttar Pradesh
38NYNNaini Junction (4)  06:03-06:05-2m22-201.41798mNCRAllahabad, Uttar Pradesh
39ALDAllahabad Junction (10)X  06:30-06:35-5m32-194.389100mNCRAllahabad 211003, Uttar Pradesh
40FTPFatehpur (3)  07:54-07:55-1m--2-77.662120mNCRFatehpur, Uttar Pradesh
41CNB»Kanpur Central (10)»  09:10-09:20-10m520.041128mNCRKANPUR-208 001, Uttar Pradesh
42PNKPanki (3)X  09:37-09:38-1m--211.576129mNCRKANPUR-208 020, Uttar Pradesh
43RURARura (4)X  10:04-10:05-1m--244.371137mNCRJhinjhak, Uttar Pradesh
44JJKJhinjhak (3)  10:21-10:22-1m3263.459140mNCRAuraiya, Uttar Pradesh
45PHDPhaphund (4)X  10:42-10:43-1m--283.253146mNCRdist. Auraiya, Uttar Pradesh
46ULDAchalda (3)X  11:02-11:03-1m--2100.065147mNCRDist. Auraiya(05688-1072), Uttar Pradesh
47BNTBharthana (3)X  11:21-11:22-1m--2119.552147mNCRBharthana, Uttar Pradesh
48ETWEtawah (5)X  11:45-11:46-1m22139.472154mNCRDistt. Etawah, Uttar Pradesh
49SKBShikohabad Junction (4)  12:32-12:33-1m32194.857166mNCRDistrict Firozabad, Uttar Pradesh
50FZDFirozabad (4)O  12:54-12:55-1m32214.625164mNCRFirozabad, Uttar Pradesh
51TDLTundla Junction (5)  13:35-13:45-10m22231.270167mNCRDistt.Firozabad, Uttar Pradesh
52JLSJalesar Road (1)X  14:09-14:10-1m12259.163172mNCRMDR 106W, Uttar Pradesh
53HRSHathras Junction (3)  14:29-14:30-1m--2279.260183mNCRMahamaya Nagar(05722-242803), Uttar Pradesh
54ALJNAligarh Junction (4)O  15:00-15:05-5m22309.375192mNCRAligarh, Uttar Pradesh
55KRJKhurja Junction (4)XO  15:40-15:45-5m--2352.838199mNCRBulandshahr, Uttar Pradesh
56GZBGhaziabad Junction (6)X  17:25-17:30-5m32415.543217mNRGhaziabad, Uttar Pradesh
57DSAShahdara Junction (4)  17:49-17:50-1m--2429.119212mNRCircular Rd, Delhi NCT
58DLI•Old Delhi Junction (16)•  18:10--112435.4-219mNRNear Chandni Chowk Metro Station, Delhi NCT
Scroll to Top
Scroll to Bottom